Time;durP1;ratioP1;P1;durP2;ratioP2;P2;SDS_P1;SDS_P2;PMS_P1;PMS_P2;Temp;Humidity;BMP_temperature;BMP_pressure;BME280_temperature;BME280_humidity;BME280_pressure;Samples;Min_cycle;Max_cycle;Signal;HPM_P1;HPM_P2
2021/12/28 00:02:05;;;;;;;0.10;0.10;;;;;;;16.90;54.98;95273.09;10412903;28;20557;-19
2021/12/28 00:07:05;;;;;;;0.80;0.25;;;;;;;16.99;54.84;95275.47;10411145;28;20029;-19
2021/12/28 00:12:07;;;;;;;0.50;0.20;;;;;;;16.99;54.86;95262.81;10410900;28;20095;-20
2021/12/28 00:22:26;;;;;;;0.90;0.22;;;;;;;16.98;55.09;95248.53;10403909;28;20095;-19
2021/12/28 00:27:26;;;;;;;1.38;0.20;;;;;;;16.99;54.81;95229.97;10403175;28;20099;-19
2021/12/28 00:32:28;;;;;;;0.70;0.30;;;;;;;17.01;54.96;95223.19;10403865;28;20033;-20
2021/12/28 00:37:28;;;;;;;0.80;0.20;;;;;;;17.03;55.02;95219.78;10402781;28;20395;-20
2021/12/28 00:42:29;;;;;;;0.67;0.10;;;;;;;17.01;55.09;95202.97;10407326;28;20116;-20
2021/12/28 00:47:29;;;;;;;0.20;0.10;;;;;;;16.92;54.81;95183.72;10407223;28;20310;-20
2021/12/28 00:52:30;;;;;;;0.35;0.15;;;;;;;17.04;55.02;95197.84;10405909;28;20302;-19
2021/12/28 00:57:30;;;;;;;0.80;0.60;;;;;;;17.01;54.96;95185.25;10406143;28;20037;-20
2021/12/28 01:02:30;;;;;;;0.20;0.10;;;;;;;17.03;54.74;95171.75;10404275;28;20137;-20
2021/12/28 01:07:31;;;;;;;2.93;1.70;;;;;;;17.02;54.63;95156.59;10406272;28;20296;-19
2021/12/28 01:12:31;;;;;;;0.35;0.30;;;;;;;17.03;54.95;95155.72;10407642;28;20302;-20
2021/12/28 01:17:36;;;;;;;0.68;0.17;;;;;;;17.04;54.82;95142.22;10406500;28;20022;-20
2021/12/28 01:22:37;;;;;;;0.45;0.20;;;;;;;17.01;54.80;95145.66;10368632;28;1111726;-20
2021/12/28 01:27:37;;;;;;;0.30;0.20;;;;;;;17.05;55.12;95146.41;10400288;28;20491;-20
2021/12/28 01:32:38;;;;;;;0.60;0.20;;;;;;;17.02;54.82;95131.31;10407425;28;20041;-20
2021/12/28 01:37:39;;;;;;;0.63;0.17;;;;;;;17.06;54.69;95132.94;10404096;28;20038;-20
2021/12/28 01:43:00;;;;;;;2.20;0.20;;;;;;;17.04;55.02;95129.56;10406753;28;20034;-19
2021/12/28 01:48:02;;;;;;;0.52;0.20;;;;;;;17.04;54.78;95127.91;10403759;28;20391;-20
2021/12/28 01:53:04;;;;;;;0.22;0.20;;;;;;;17.04;55.00;95122.00;10407971;28;20033;-19
2021/12/28 01:58:05;;;;;;;0.50;0.30;;;;;;;17.06;54.59;95110.19;10406030;28;20487;-19
2021/12/28 02:03:10;;;;;;;0.10;0.10;;;;;;;17.04;55.04;95096.72;10405098;28;20025;-20
2021/12/28 02:08:12;;;;;;;0.10;0.10;;;;;;;17.06;54.84;95095.00;10407091;28;20133;-20
2021/12/28 02:13:14;;;;;;;0.20;0.10;;;;;;;17.06;54.91;95079.84;10404245;28;20037;-20
2021/12/28 02:18:18;;;;;;;0.47;0.17;;;;;;;17.02;54.93;95074.00;10400885;28;20034;-19
2021/12/28 02:23:19;;;;;;;0.82;0.10;;;;;;;17.02;55.25;95076.53;10405147;28;20052;-20
2021/12/28 02:28:20;;;;;;;0.00;0.00;;;;;;;17.06;54.94;95069.72;10406933;28;20483;-20
2021/12/28 02:33:23;;;;;;;0.25;0.10;;;;;;;17.07;54.67;95066.34;10399484;28;20032;-20
2021/12/28 02:38:24;;;;;;;0.22;0.20;;;;;;;17.06;55.00;95064.66;10407251;28;20114;-20
2021/12/28 02:43:24;;;;;;;0.45;0.20;;;;;;;17.07;54.62;95062.09;10405738;28;20428;-20
2021/12/28 02:48:26;;;;;;;0.55;0.20;;;;;;;17.07;55.01;95046.91;10401927;28;20029;-20
2021/12/28 02:53:27;;;;;;;0.43;0.10;;;;;;;17.06;54.86;95057.09;10406526;28;20542;-19
2021/12/28 02:58:34;;;;;;;0.35;0.15;;;;;;;17.06;54.84;95040.22;10401536;28;20037;-20
2021/12/28 03:03:34;;;;;;;;;;;;;;;17.07;54.81;95038.53;10405502;28;20032;-20
2021/12/28 03:08:38;;;;;;;0.40;0.20;;;;;;;17.09;54.77;95040.13;10406288;28;19932;-20
2021/12/28 03:13:44;;;;;;;1.60;0.20;;;;;;;17.06;55.07;95034.34;10402153;28;20037;-19
2021/12/28 03:18:45;;;;;;;0.13;0.10;;;;;;;17.06;54.75;95037.69;10398729;28;20032;-20
2021/12/28 03:23:46;;;;;;;0.20;0.10;;;;;;;17.06;55.11;95024.22;10405870;28;20493;-20
2021/12/28 03:28:47;;;;;;;0.57;0.10;;;;;;;17.10;54.61;95021.59;10402464;28;20035;-20
2021/12/28 03:33:51;;;;;;;1.35;0.20;;;;;;;17.10;54.67;95013.16;10401836;28;20044;-20
2021/12/28 03:38:52;;;;;;;0.20;0.20;;;;;;;17.10;54.80;95008.94;10405623;28;20383;-20
2021/12/28 03:43:54;;;;;;;0.20;0.20;;;;;;;17.10;54.90;94991.25;10401988;28;20045;-20
2021/12/28 03:48:56;;;;;;;0.28;0.13;;;;;;;17.10;54.65;94995.47;10400881;28;20030;-20
2021/12/28 03:53:56;;;;;;;0.77;0.30;;;;;;;17.09;54.89;94983.69;10404564;28;20412;-20
2021/12/28 03:58:57;;;;;;;0.10;0.10;;;;;;;17.10;55.01;94982.81;10399621;28;20034;-20
2021/12/28 04:03:57;;;;;;;0.10;0.10;;;;;;;17.09;54.87;94983.69;10400477;28;20044;-20
2021/12/28 04:08:59;;;;;;;0.93;0.40;;;;;;;16.92;54.84;94951.19;10405300;28;20396;-20
2021/12/28 04:14:06;;;;;;;1.65;0.22;;;;;;;17.11;54.84;94979.44;10400772;28;20043;-19
2021/12/28 04:19:06;;;;;;;0.40;0.10;;;;;;;17.07;54.76;94980.38;10402409;28;20084;-19
2021/12/28 04:24:07;;;;;;;0.20;0.10;;;;;;;17.09;54.75;94966.81;10409287;28;20574;-20
2021/12/28 04:29:07;;;;;;;0.20;0.00;;;;;;;17.09;54.53;94939.00;10410584;28;20107;-20
2021/12/28 04:34:07;;;;;;;0.30;0.10;;;;;;;17.09;54.98;94959.22;10403999;28;20026;-20
2021/12/28 04:39:08;;;;;;;0.20;0.10;;;;;;;17.08;54.79;94936.53;10412027;28;20029;-20
2021/12/28 04:44:11;;;;;;;0.45;0.10;;;;;;;17.10;54.83;94939.84;10403650;28;20033;-20
2021/12/28 04:49:12;;;;;;;0.10;0.08;;;;;;;17.17;54.62;94936.31;10406065;28;20030;-20
2021/12/28 04:54:13;;;;;;;0.30;0.10;;;;;;;17.17;54.91;94938.84;10410905;28;20072;-20
2021/12/28 04:59:14;;;;;;;0.22;0.10;;;;;;;17.15;54.60;94918.63;10398308;28;20045;-19
2021/12/28 05:04:15;;;;;;;0.10;0.08;;;;;;;17.18;54.77;94905.94;10409605;28;20048;-20
2021/12/28 05:09:15;;;;;;;0.43;0.10;;;;;;;17.19;54.81;94921.94;10410804;28;20046;-19
2021/12/28 05:14:17;;;;;;;0.90;0.10;;;;;;;17.20;54.60;94916.00;10400979;28;20021;-20
2021/12/28 05:19:18;;;;;;;0.10;0.00;;;;;;;17.17;55.00;94891.63;10397879;28;20044;-20
2021/12/28 05:24:18;;;;;;;0.28;0.10;;;;;;;17.20;54.80;94900.84;10403144;28;20042;-20
2021/12/28 05:29:19;;;;;;;0.10;0.10;;;;;;;17.21;54.57;94882.25;10405790;28;20067;-19
2021/12/28 05:34:20;;;;;;;0.20;0.10;;;;;;;17.19;54.76;94872.22;10399594;28;20296;-20
2021/12/28 05:39:20;;;;;;;2.20;0.17;;;;;;;17.20;54.75;94918.53;10407905;28;20029;-19
2021/12/28 05:44:21;;;;;;;1.08;0.15;;;;;;;17.24;54.53;94903.25;10401527;28;20372;-19
2021/12/28 05:49:23;;;;;;;1.60;0.25;;;;;;;17.28;54.53;94906.53;10401303;28;20534;-20
2021/12/28 05:54:23;;;;;;;1.20;0.15;;;;;;;17.23;54.52;94906.66;10402937;28;20026;-20
2021/12/28 05:59:24;;;;;;;3.55;0.55;;;;;;;17.22;54.11;94904.16;10394734;28;20034;-20
2021/12/28 06:04:24;;;;;;;1.15;0.35;;;;;;;17.29;54.13;94915.78;10398610;28;20033;-19
2021/12/28 06:09:25;;;;;;;1.67;0.40;;;;;;;17.23;54.39;94926.06;10405757;28;20037;-20
2021/12/28 06:14:25;;;;;;;3.20;0.40;;;;;;;17.26;54.39;94956.31;10403914;28;20798;-19
2021/12/28 06:19:26;;;;;;;3.50;2.13;;;;;;;17.20;54.39;94939.59;10400375;28;20033;-19
2021/12/28 06:24:26;;;;;;;0.95;0.20;;;;;;;17.24;54.31;94958.06;10407471;28;20363;-20
2021/12/28 06:29:27;;;;;;;3.20;0.20;;;;;;;17.23;54.32;94956.41;10405445;28;20041;-19
2021/12/28 06:34:27;;;;;;;1.73;0.38;;;;;;;17.24;54.63;94937.84;10398999;28;20295;-19
2021/12/28 06:39:28;;;;;;;1.98;0.32;;;;;;;17.28;54.42;94962.16;10406780;28;20046;-20
2021/12/28 06:44:28;;;;;;;0.63;0.30;;;;;;;17.27;54.20;94973.16;10401143;28;20021;-19
2021/12/28 06:49:28;;;;;;;0.97;0.40;;;;;;;17.27;54.19;94978.22;10401914;28;20094;-20
2021/12/28 06:54:29;;;;;;;1.20;0.20;;;;;;;17.29;54.34;94962.16;10406485;28;20645;-20
2021/12/28 06:59:29;;;;;;;0.83;0.13;;;;;;;17.31;54.07;94964.66;10402270;28;20431;-20
2021/12/28 07:04:30;;;;;;;1.13;0.20;;;;;;;17.34;54.06;94964.56;10404965;28;20280;-20
2021/12/28 07:09:31;;;;;;;0.55;0.25;;;;;;;17.32;54.12;94969.66;10406538;28;20041;-19
2021/12/28 07:14:31;;;;;;;0.15;0.13;;;;;;;17.23;54.43;94992.63;10403824;28;20037;-20
2021/12/28 07:19:32;;;;;;;0.68;0.10;;;;;;;17.22;54.38;94985.06;10398723;28;20437;-20
2021/12/28 07:24:32;;;;;;;1.67;0.40;;;;;;;17.29;54.54;94996.72;10405755;28;20096;-19
2021/12/28 07:29:33;;;;;;;0.85;0.10;;;;;;;17.25;54.41;94990.06;10402648;28;20044;-19
2021/12/28 07:34:34;;;;;;;1.20;0.15;;;;;;;17.28;54.27;94990.00;10397900;28;20582;-20
2021/12/28 07:39:34;;;;;;;1.77;0.17;;;;;;;17.26;54.36;95001.84;10405738;28;20120;-20
2021/12/28 07:44:36;;;;;;;1.13;0.40;;;;;;;17.27;54.56;94998.44;10399036;28;20025;-20
2021/12/28 07:49:36;;;;;;;0.30;0.10;;;;;;;17.23;54.42;95012.03;10403144;28;20025;-20
2021/12/28 07:54:36;;;;;;;4.90;0.57;;;;;;;17.25;54.66;94997.66;10413390;28;20048;-19
2021/12/28 07:59:37;;;;;;;0.25;0.10;;;;;;;17.22;54.77;95006.13;10409613;28;20300;-20
2021/12/28 08:04:37;;;;;;;1.67;0.10;;;;;;;17.23;54.60;95014.56;10410881;28;20259;-20
2021/12/28 08:09:37;;;;;;;0.77;0.20;;;;;;;17.20;54.86;95028.09;10413737;28;20863;-20
2021/12/28 08:14:38;;;;;;;0.80;0.30;;;;;;;17.24;54.64;95039.81;10410110;28;20306;-20
2021/12/28 08:19:38;;;;;;;0.88;0.55;;;;;;;17.22;54.72;95039.00;10404729;28;20041;-20
2021/12/28 08:24:39;;;;;;;0.10;0.10;;;;;;;17.26;54.63;95038.06;10412246;28;20081;-20
2021/12/28 08:29:39;;;;;;;0.40;0.10;;;;;;;17.25;54.65;95050.75;10407426;28;20041;-20
2021/12/28 08:34:40;;;;;;;0.20;0.10;;;;;;;17.26;54.97;95047.38;10404156;28;20299;-20
2021/12/28 08:39:40;;;;;;;2.00;0.47;;;;;;;17.25;54.92;95065.94;10411960;28;20271;-19
2021/12/28 08:44:41;;;;;;;0.10;0.00;;;;;;;17.26;54.77;95057.47;10409941;28;20055;-20
2021/12/28 08:49:41;;;;;;;0.22;0.22;;;;;;;17.22;54.74;95063.47;10406648;28;20391;-20
2021/12/28 08:54:41;;;;;;;0.30;0.15;;;;;;;17.23;55.05;95062.63;10411020;28;20039;-20
2021/12/28 08:59:42;;;;;;;2.20;0.20;;;;;;;17.25;54.89;95058.34;10408703;28;20032;-20
2021/12/28 09:04:46;;;;;;;0.93;0.20;;;;;;;17.25;54.62;95081.09;10409223;28;20033;-19
2021/12/28 09:09:46;;;;;;;0.85;0.30;;;;;;;17.23;54.88;95087.91;10410454;28;20037;-19
2021/12/28 09:14:47;;;;;;;1.73;0.40;;;;;;;17.19;54.91;95091.34;10404552;28;20036;-20
2021/12/28 09:19:47;;;;;;;0.50;0.10;;;;;;;17.16;54.87;95091.41;10403405;28;20310;-20
2021/12/28 09:24:48;;;;;;;1.52;0.10;;;;;;;17.21;55.11;95115.75;10410402;28;20260;-19
2021/12/28 09:29:48;;;;;;;0.30;0.20;;;;;;;17.23;55.24;95128.38;10406794;28;20022;-20
2021/12/28 09:34:52;;;;;;;1.03;0.17;;;;;;;17.25;55.03;95129.16;10401790;28;20029;-19
2021/12/28 09:39:53;;;;;;;0.17;0.00;;;;;;;17.25;54.74;95117.34;10410003;28;20084;-20
2021/12/28 09:44:54;;;;;;;0.30;0.20;;;;;;;17.24;55.01;95127.50;10406173;28;20049;-19
2021/12/28 09:49:54;;;;;;;0.30;0.10;;;;;;;17.21;55.14;95120.81;10404257;28;20407;-20
2021/12/28 09:54:55;;;;;;;0.47;0.13;;;;;;;17.22;55.11;95116.56;10408947;28;20472;-19
2021/12/28 09:59:55;;;;;;;0.40;0.13;;;;;;;17.21;55.22;95125.00;10406286;28;20419;-20
2021/12/28 10:04:59;;;;;;;0.20;0.17;;;;;;;17.22;54.92;95140.16;10408934;28;20029;-20
2021/12/28 10:10:00;;;;;;;0.30;0.10;;;;;;;17.21;55.22;95140.19;10410662;28;20069;-20
2021/12/28 10:15:06;;;;;;;0.65;0.10;;;;;;;17.21;54.88;95125.84;10405680;28;20179;-20
2021/12/28 10:20:12;;;;;;;0.68;0.13;;;;;;;17.24;54.79;95128.31;10401910;28;20037;-20
2021/12/28 10:25:24;;;;;;;0.20;0.08;;;;;;;17.23;55.03;95130.91;10410778;28;20124;-19
2021/12/28 10:30:33;;;;;;;0.38;0.10;;;;;;;17.23;54.99;95138.47;10399150;28;20371;-20
2021/12/28 10:35:37;;;;;;;0.45;0.10;;;;;;;17.24;54.85;95122.44;10400203;28;20040;-20
2021/12/28 10:40:43;;;;;;;0.05;0.03;;;;;;;17.25;54.99;95121.56;10409423;28;20041;-20
2021/12/28 10:45:49;;;;;;;0.10;0.03;;;;;;;17.26;55.01;95135.88;10402868;28;20056;-19
2021/12/28 10:50:59;;;;;;;0.30;0.10;;;;;;;17.28;54.80;95140.06;10403960;28;20292;-19
2021/12/28 10:56:03;;;;;;;0.50;0.08;;;;;;;17.22;54.94;95126.66;10409106;28;20025;-19
2021/12/28 11:01:08;;;;;;;0.15;0.03;;;;;;;17.33;54.99;95147.53;10406201;28;20104;-20
2021/12/28 11:06:24;;;;;;;0.65;0.20;;;;;;;17.31;54.96;95136.63;10407626;28;20026;-19
2021/12/28 11:11:26;;;;;;;0.10;0.10;;;;;;;17.36;54.97;95132.31;10400785;28;20383;-20
2021/12/28 11:16:29;;;;;;;0.47;0.00;;;;;;;17.36;55.04;95137.38;10407949;28;20117;-20
2021/12/28 11:21:35;;;;;;;0.20;0.10;;;;;;;17.33;54.77;95128.13;10400545;28;20036;-20
2021/12/28 11:26:42;;;;;;;1.25;0.00;;;;;;;17.35;54.87;95128.09;10415653;28;20025;-20
2021/12/28 11:31:44;;;;;;;0.28;0.10;;;;;;;17.33;55.02;95135.72;10411369;28;20471;-20
2021/12/28 11:36:54;;;;;;;0.28;0.20;;;;;;;17.36;54.37;95114.63;10404397;28;20049;-19
2021/12/28 11:41:57;;;;;;;0.40;0.20;;;;;;;17.45;54.51;95119.47;10414662;28;20026;-20
2021/12/28 11:47:00;;;;;;;0.50;0.28;;;;;;;17.48;54.44;95094.13;10416583;28;20123;-20
2021/12/28 11:52:05;;;;;;;0.10;0.05;;;;;;;17.44;54.42;95100.97;10410532;28;20041;-19
2021/12/28 11:57:11;;;;;;;0.22;0.10;;;;;;;17.46;54.57;95100.91;10413583;28;20029;-20
2021/12/28 12:02:12;;;;;;;0.30;0.10;;;;;;;17.45;54.34;95084.06;10413682;28;20029;-20
2021/12/28 12:07:16;;;;;;;0.93;0.15;;;;;;;17.43;54.45;95091.72;10414944;28;20387;-20
2021/12/28 12:12:22;;;;;;;0.45;0.20;;;;;;;17.46;54.49;95090.78;10412066;28;20149;-20
2021/12/28 12:17:29;;;;;;;0.43;0.15;;;;;;;17.47;54.23;95092.44;10405421;28;20060;-20
2021/12/28 12:22:29;;;;;;;0.30;0.20;;;;;;;17.35;54.54;95075.00;10412517;28;20037;-20
2021/12/28 12:27:53;;;;;;;0.65;0.22;;;;;;;17.42;54.39;95100.13;10413171;28;20037;-20
2021/12/28 12:33:02;;;;;;;0.40;0.15;;;;;;;17.43;54.56;95091.72;10410190;28;20403;-20
2021/12/28 12:38:25;;;;;;;0.50;0.30;;;;;;;17.43;54.61;95091.72;10411622;28;20091;-20
2021/12/28 12:43:35;;;;;;;0.68;0.30;;;;;;;17.41;54.64;95079.94;10401071;28;20044;-20
2021/12/28 12:48:35;;;;;;;0.30;0.20;;;;;;;17.42;54.56;95066.44;10408909;28;20117;-19
2021/12/28 12:53:46;;;;;;;0.50;0.20;;;;;;;17.45;54.43;95053.72;10413724;28;20563;-20
2021/12/28 12:58:49;;;;;;;1.13;0.35;;;;;;;17.42;54.44;95049.53;10411426;28;20056;-20
2021/12/28 13:03:51;;;;;;;0.40;0.20;;;;;;;17.37;54.79;95048.84;10412106;28;20104;-20
2021/12/28 13:08:58;;;;;;;0.70;0.20;;;;;;;17.35;54.57;95034.50;10412623;28;20045;-19
2021/12/28 13:13:58;;;;;;;0.20;0.13;;;;;;;17.41;54.55;95039.47;10406789;28;20506;-19
2021/12/28 13:19:13;;;;;;;0.23;0.17;;;;;;;17.39;54.46;95021.78;10405349;28;20048;-20
2021/12/28 13:24:14;;;;;;;0.20;0.10;;;;;;;17.40;54.56;95066.47;10412313;28;20056;-20
2021/12/28 13:29:38;;;;;;;0.03;0.03;;;;;;;17.40;54.62;95070.72;10404919;28;20079;-20
2021/12/28 13:35:03;;;;;;;0.10;0.10;;;;;;;17.40;54.61;95090.94;10402437;28;20050;-19
2021/12/28 13:40:26;;;;;;;0.43;0.13;;;;;;;17.39;54.65;95077.44;10408946;28;20470;-19
2021/12/28 13:45:47;;;;;;;0.93;0.20;;;;;;;17.34;54.59;95068.25;10404936;28;20116;-20
2021/12/28 13:50:52;;;;;;;0.65;0.30;;;;;;;17.41;54.28;95073.19;10405695;28;20045;-20
2021/12/28 13:56:01;;;;;;;0.10;0.00;;;;;;;17.42;54.24;95077.38;10411741;28;20060;-20
2021/12/28 14:01:07;;;;;;;0.30;0.10;;;;;;;17.42;54.21;95089.19;10403976;28;20052;-20
2021/12/28 14:06:09;;;;;;;0.40;0.10;;;;;;;17.44;54.34;95073.13;10408790;28;20207;-20
2021/12/28 14:11:09;;;;;;;0.20;0.10;;;;;;;17.45;54.18;95058.78;10408316;28;20030;-20
2021/12/28 14:16:11;;;;;;;0.27;0.10;;;;;;;17.43;53.99;95076.53;10401432;28;20033;-20
2021/12/28 14:21:26;;;;;;;0.40;0.30;;;;;;;17.44;54.26;95052.03;10400469;28;20374;-20
2021/12/28 14:26:35;;;;;;;0.25;0.20;;;;;;;17.45;53.96;95064.66;10404535;28;20049;-20
2021/12/28 14:31:40;;;;;;;0.20;0.10;;;;;;;17.47;54.07;95077.25;10404768;28;20107;-20
2021/12/28 14:36:45;;;;;;;0.22;0.10;;;;;;;17.48;54.04;95084.03;10394837;28;20689;-20
2021/12/28 14:41:49;;;;;;;0.10;0.10;;;;;;;17.45;54.10;95106.84;10407113;28;20025;-19
2021/12/28 14:46:52;;;;;;;0.32;0.10;;;;;;;17.47;53.91;95132.91;10406638;28;20036;-20
2021/12/28 14:52:07;;;;;;;0.17;0.10;;;;;;;17.48;53.87;95129.56;10402255;28;20056;-20
2021/12/28 14:57:14;;;;;;;0.90;0.30;;;;;;;17.45;53.89;95110.22;10403445;28;20457;-20
2021/12/28 15:02:16;;;;;;;0.20;0.17;;;;;;;17.41;54.08;95148.25;10407240;28;20022;-20
2021/12/28 15:07:18;;;;;;;0.22;0.10;;;;;;;17.49;53.90;95184.34;10405936;28;20033;-19
2021/12/28 15:12:18;;;;;;;0.30;0.10;;;;;;;17.49;53.66;95199.53;10402776;28;20471;-20
2021/12/28 15:17:21;;;;;;;0.22;0.20;;;;;;;17.36;53.76;95195.56;10406729;28;20034;-20
2021/12/28 15:22:22;;;;;;;0.13;0.13;;;;;;;17.47;53.73;95239.19;10397907;28;20076;-20
2021/12/28 15:27:22;;;;;;;0.75;0.20;;;;;;;17.47;53.64;95264.47;10398695;28;20112;-20
2021/12/28 15:32:22;;;;;;;0.60;0.27;;;;;;;17.51;53.72;95277.03;10405916;28;20040;-20
2021/12/28 15:37:23;;;;;;;0.20;0.20;;;;;;;17.36;53.76;95243.63;10399528;28;20037;-19
2021/12/28 15:42:24;;;;;;;0.38;0.22;;;;;;;17.50;53.68;95267.78;10403094;28;20021;-20
2021/12/28 15:47:25;;;;;;;0.10;0.10;;;;;;;17.48;53.99;95251.00;10405998;28;20040;-19
2021/12/28 15:52:25;;;;;;;0.20;0.17;;;;;;;17.50;53.91;95269.50;10400632;28;20092;-20
2021/12/28 15:57:27;;;;;;;0.40;0.25;;;;;;;17.45;54.36;95273.78;10400636;28;20061;-20
2021/12/28 16:02:27;;;;;;;0.25;0.13;;;;;;;17.47;54.03;95284.72;10405688;28;20017;-20
2021/12/28 16:07:28;;;;;;;0.13;0.10;;;;;;;17.49;54.25;95278.75;10405638;28;20040;-20
2021/12/28 16:12:28;;;;;;;0.30;0.10;;;;;;;17.46;54.14;95278.00;10401595;28;20191;-20
2021/12/28 16:17:28;;;;;;;1.60;0.30;;;;;;;17.44;54.34;95305.88;10412719;28;20049;-20
2021/12/28 16:22:29;;;;;;;0.60;0.30;;;;;;;17.45;54.52;95329.44;10405806;28;20045;-20
2021/12/28 16:27:29;;;;;;;0.63;0.23;;;;;;;17.43;54.46;95323.59;10411303;28;20112;-19
2021/12/28 16:32:30;;;;;;;0.52;0.28;;;;;;;17.44;54.46;95310.94;10413026;28;20033;-20
2021/12/28 16:37:32;;;;;;;0.82;0.35;;;;;;;17.44;54.35;95326.09;10413405;28;20025;-20
2021/12/28 16:42:32;;;;;;;0.25;0.20;;;;;;;17.46;54.22;95334.50;10412184;28;20068;-20
2021/12/28 16:47:33;;;;;;;0.47;0.33;;;;;;;17.48;54.22;95325.19;10412893;28;20044;-19
2021/12/28 16:52:33;;;;;;;0.63;0.20;;;;;;;17.46;54.36;95341.22;10408909;28;20031;-20
2021/12/28 16:57:35;;;;;;;0.50;0.43;;;;;;;17.48;54.26;95352.19;10411328;28;20025;-21
2021/12/28 17:02:36;;;;;;;0.40;0.10;;;;;;;17.50;54.29;95345.41;10411474;28;20614;-20
2021/12/28 17:07:37;;;;;;;0.65;0.22;;;;;;;17.52;54.20;95341.13;10413822;28;20029;-20
2021/12/28 17:12:37;;;;;;;0.32;0.20;;;;;;;17.52;54.30;95324.28;10410498;28;20585;-19
2021/12/28 17:17:38;;;;;;;0.37;0.20;;;;;;;17.51;54.38;95326.81;10411305;28;20120;-20
2021/12/28 17:22:39;;;;;;;0.60;0.40;;;;;;;17.51;54.50;95316.69;10406717;28;20330;-20
2021/12/28 17:27:40;;;;;;;1.70;0.30;;;;;;;17.48;54.47;95330.22;10405121;28;20049;-19
2021/12/28 17:32:42;;;;;;;1.83;0.50;;;;;;;17.54;54.22;95301.44;10409878;28;20037;-20
2021/12/28 17:37:42;;;;;;;0.70;0.30;;;;;;;17.54;54.25;95301.44;10406639;28;20440;-20
2021/12/28 17:42:45;;;;;;;0.35;0.10;;;;;;;17.53;54.26;95312.44;10409302;28;20502;-20
2021/12/28 17:47:45;;;;;;;0.20;0.20;;;;;;;17.54;54.04;95314.09;10409416;28;20068;-20
2021/12/28 17:52:46;;;;;;;0.68;0.20;;;;;;;17.53;53.83;95313.28;10408503;28;20049;-20
2021/12/28 17:57:46;;;;;;;0.63;0.22;;;;;;;17.55;54.16;95313.22;10408679;28;20033;-20
2021/12/28 18:02:48;;;;;;;0.28;0.17;;;;;;;17.57;54.01;95336.84;10409456;28;20041;-20
2021/12/28 18:07:49;;;;;;;0.10;0.10;;;;;;;17.57;54.02;95298.88;10411131;28;20033;-20
2021/12/28 18:12:49;;;;;;;0.35;0.20;;;;;;;17.62;54.03;95337.56;10403944;28;20396;-19
2021/12/28 18:17:49;;;;;;;1.07;0.40;;;;;;;17.62;54.00;95320.69;10407921;28;20042;-19
2021/12/28 18:22:50;;;;;;;0.85;0.20;;;;;;;17.64;53.77;95339.22;10405902;28;20284;-19
2021/12/28 18:27:52;;;;;;;0.63;0.30;;;;;;;17.64;54.01;95343.44;10409611;28;20484;-20
2021/12/28 18:33:04;;;;;;;1.65;0.28;;;;;;;17.64;53.69;95333.31;10399943;28;20300;-20
2021/12/28 18:38:07;;;;;;;0.40;0.32;;;;;;;17.66;53.66;95341.72;10402761;28;20487;-19
2021/12/28 18:43:10;;;;;;;5.07;0.60;;;;;;;17.75;53.55;95328.91;10401401;28;20088;-20
2021/12/28 18:48:12;;;;;;;7.47;1.00;;;;;;;17.74;54.20;95344.94;10403220;28;20030;-20
2021/12/28 18:53:13;;;;;;;10.48;1.33;;;;;;;17.64;54.22;95338.38;10406031;28;20466;-22
2021/12/28 18:58:16;;;;;;;1.80;0.43;;;;;;;17.66;54.12;95361.97;10401715;28;20029;-21
2021/12/28 19:03:19;;;;;;;2.63;0.52;;;;;;;17.58;54.28;95353.69;10400921;28;20025;-22
2021/12/28 19:08:21;;;;;;;2.30;0.65;;;;;;;17.60;54.40;95362.06;10397884;28;20040;-22
2021/12/28 19:13:25;;;;;;;2.42;0.70;;;;;;;17.57;54.26;95349.50;10400524;28;20553;-22
2021/12/28 19:18:25;;;;;;;0.85;0.40;;;;;;;17.56;54.54;95368.88;10401540;28;20037;-22
2021/12/28 19:23:26;;;;;;;1.60;0.30;;;;;;;17.56;54.49;95355.41;10403771;28;20018;-20
2021/12/28 19:28:26;;;;;;;2.33;0.47;;;;;;;17.60;54.34;95369.66;10394576;28;20112;-20
2021/12/28 19:33:28;;;;;;;2.80;0.40;;;;;;;17.60;54.55;95362.06;10389015;28;20030;-20
2021/12/28 19:38:29;;;;;;;1.63;0.45;;;;;;;17.63;54.29;95387.31;10402896;28;20033;-20
2021/12/28 19:43:29;;;;;;;4.10;0.52;;;;;;;17.63;54.05;95372.13;10395008;28;20041;-20
2021/12/28 19:48:32;;;;;;;3.30;0.70;;;;;;;17.62;54.47;95390.72;10402868;28;20030;-20
2021/12/28 19:53:33;;;;;;;5.63;0.80;;;;;;;17.59;54.28;95406.78;10409478;28;20076;-19
2021/12/28 19:58:34;;;;;;;3.75;1.55;;;;;;;17.57;54.47;95421.16;10396640;28;20116;-20
2021/12/28 20:03:34;;;;;;;7.32;1.55;;;;;;;17.71;54.20;95405.72;10409460;28;20025;-19
2021/12/28 20:08:35;;;;;;;9.23;2.22;;;;;;;17.73;54.27;95414.16;10401328;28;20037;-19
2021/12/28 20:13:35;;;;;;;5.33;2.47;;;;;;;17.75;53.92;95417.47;10406257;28;20041;-20
2021/12/28 20:18:35;;;;;;;7.60;2.87;;;;;;;17.74;53.98;95420.88;10407583;28;20284;-20
2021/12/28 20:23:36;;;;;;;5.13;2.28;;;;;;;17.76;53.94;95424.22;10412094;28;20280;-20
2021/12/28 20:28:36;;;;;;;5.45;2.30;;;;;;;17.78;53.92;95417.41;10411555;28;20391;-20
2021/12/28 20:33:37;;;;;;;5.10;2.65;;;;;;;17.74;53.88;95421.69;10405328;28;20034;-19
2021/12/28 20:38:38;;;;;;;6.07;3.53;;;;;;;17.74;54.04;95424.22;10412122;28;20044;-20
2021/12/28 20:43:40;;;;;;;5.13;2.03;;;;;;;17.75;54.18;95436.03;10409747;28;20033;-20
2021/12/28 20:48:41;;;;;;;6.40;3.40;;;;;;;17.72;54.03;95448.75;10407851;28;20384;-20
2021/12/28 20:53:41;;;;;;;6.28;2.38;;;;;;;17.74;54.00;95443.66;10410921;28;20041;-20
2021/12/28 20:58:41;;;;;;;4.70;1.65;;;;;;;17.74;54.19;95461.38;10409068;28;20557;-20
2021/12/28 21:03:42;;;;;;;4.93;2.30;;;;;;;17.73;53.88;95464.78;10408680;28;20463;-20
2021/12/28 21:08:44;;;;;;;3.95;2.15;;;;;;;17.74;54.05;95461.38;10406749;28;20707;-20
2021/12/28 21:13:44;;;;;;;4.32;2.13;;;;;;;17.77;53.93;95481.56;10403263;28;20029;-20
2021/12/28 21:18:44;;;;;;;4.10;1.97;;;;;;;17.61;54.06;95465.81;10398400;28;20025;-19
2021/12/28 21:23:45;;;;;;;6.47;2.27;;;;;;;17.72;53.98;95489.25;10404452;28;20391;-19
2021/12/28 21:28:45;;;;;;;4.15;2.10;;;;;;;17.74;54.09;95506.94;10401459;28;20302;-19
2021/12/28 21:33:46;;;;;;;3.50;2.30;;;;;;;17.75;53.94;95501.00;10397006;28;20064;-19
2021/12/28 21:38:46;;;;;;;3.90;2.40;;;;;;;17.76;53.97;95502.69;10405457;28;20276;-20
2021/12/28 21:43:46;;;;;;;6.03;3.23;;;;;;;17.74;53.92;95512.00;10402746;28;20024;-19
2021/12/28 21:48:47;;;;;;;5.40;2.63;;;;;;;17.70;54.06;95520.50;10400571;28;20040;-20
2021/12/28 21:53:49;;;;;;;5.00;2.40;;;;;;;17.72;54.18;95544.06;10404452;28;20341;-20
2021/12/28 21:58:50;;;;;;;4.85;2.15;;;;;;;17.72;54.13;95539.88;10402357;28;20041;-19
2021/12/28 22:03:50;;;;;;;4.07;2.65;;;;;;;17.71;53.93;95542.41;10400782;28;20467;-20
2021/12/28 22:08:52;;;;;;;3.97;2.43;;;;;;;17.68;54.06;95557.66;10400107;28;20034;-20
2021/12/28 22:13:52;;;;;;;3.80;2.42;;;;;;;17.69;54.22;95549.19;10401483;28;20033;-19
2021/12/28 22:18:53;;;;;;;4.53;2.93;;;;;;;17.69;54.26;95564.38;10396829;28;20075;-20
2021/12/28 22:23:54;;;;;;;3.58;2.28;;;;;;;17.67;54.30;95574.53;10398192;28;20036;-20
2021/12/28 22:28:54;;;;;;;4.00;2.60;;;;;;;17.67;54.32;95586.34;10402018;28;20880;-20
2021/12/28 22:33:56;;;;;;;4.07;2.30;;;;;;;17.69;54.49;95592.22;10395887;28;20399;-20
2021/12/28 22:38:57;;;;;;;5.35;2.72;;;;;;;17.70;54.28;95581.22;10401120;28;20292;-20
2021/12/28 22:43:58;;;;;;;5.78;3.45;;;;;;;17.69;54.44;95615.00;10394879;28;20065;-20
2021/12/28 22:48:59;;;;;;;4.00;2.35;;;;;;;17.68;54.94;95608.28;10394526;28;20029;-20
2021/12/28 22:53:59;;;;;;;7.25;2.72;;;;;;;17.62;54.61;95604.13;10400935;28;20037;-19
2021/12/28 22:59:00;;;;;;;4.15;2.50;;;;;;;17.65;54.82;95604.09;10395528;28;20104;-20
2021/12/28 23:04:00;;;;;;;4.17;2.70;;;;;;;17.60;54.81;95620.19;10398884;28;20029;-20
2021/12/28 23:09:03;;;;;;;4.47;1.77;;;;;;;17.64;54.92;95612.53;10396701;28;20040;-20
2021/12/28 23:14:05;;;;;;;7.93;2.35;;;;;;;17.66;54.88;95615.06;10397740;28;20033;-20
2021/12/28 23:19:07;;;;;;;3.58;1.90;;;;;;;17.64;54.85;95616.75;10395109;28;20059;-19
2021/12/28 23:24:10;;;;;;;4.53;2.08;;;;;;;17.65;54.93;95626.03;10402412;28;20484;-20
2021/12/28 23:29:11;;;;;;;3.60;2.47;;;;;;;17.63;55.10;95625.19;10399721;28;20099;-19